• Join FlightAware (Why Join?)
  • Login
  • US Flag 
02:27AM EDT


 

Airport Tracker/Info


-or-


 

Live Flight TrackerFlight Track Log ✈ KLM590 ✈ 14-May-2012 ✈ DGAA / ACC - EHAM / AMS

Flight Track Log - Related Links

Times and Time Zones

All times are in EDT time to prevent confusion due to time zone crossing. See the KLM590 flight status page for this flight to view local times or setup timezone preferences in your user account.

Time Position Orientation Groundspeed Altitude Reporting Facility
EDT Latitude Longitude Course Direction KTS MPH feet Rate Location/Type
06:39PM 5.7929 -0.1532 North  Level Estimated
06:40PM 5.9186 -0.1440 North  Level Estimated
06:41PM 6.0443 -0.1349 North  Level Estimated
06:42PM 6.1700 -0.1258 North  Level Estimated
06:43PM 6.2957 -0.1166 North  Level Estimated
06:44PM 6.4215 -0.1075 North  Level Estimated
06:45PM 6.5472 -0.0984 North  Level Estimated
06:46PM 6.6729 -0.0892 North  Level Estimated
06:47PM 6.7986 -0.0800 North  Level Estimated
06:48PM 6.9243 -0.0709 North  Level Estimated
06:49PM 7.0500 -0.0617 North  Level Estimated
06:50PM 7.1757 -0.0525 North  Level Estimated
06:51PM 7.3014 -0.0434 North  Level Estimated
06:52PM 7.4271 -0.0342 North  Level Estimated
06:53PM 7.5528 -0.0250 North  Level Estimated
06:54PM 7.6785 -0.0158 North  Level Estimated
06:55PM 7.8043 -0.0066 North  Level Estimated
06:56PM 7.9300 0.0026 North  Level Estimated
06:57PM 8.0557 0.0118 North  Level Estimated
06:58PM 8.1814 0.0210 North  Level Estimated
06:59PM 8.3071 0.0302 North  Level Estimated
07:00PM 8.4328 0.0395 North  Level Estimated
07:01PM 8.5585 0.0487 10° North  Level Estimated
07:02PM 8.6842 0.0579 10° North  Level Estimated
07:03PM 8.8099 0.0672 10° North  Level Estimated
07:04PM 8.9356 0.0764 10° North  Level Estimated
07:05PM 9.0614 0.0857 10° North  Level Estimated
07:06PM 9.1871 0.0949 10° North  Level Estimated
07:07PM 9.3128 0.1042 10° North  Level Estimated
07:08PM 9.4385 0.1135 10° North  Level Estimated
07:09PM 9.5642 0.1228 10° North  Level Estimated
07:10PM 9.6899 0.1321 10° North  Level Estimated
07:11PM 9.8156 0.1414 10° North  Level Estimated
07:12PM 9.9413 0.1507 10° North  Level Estimated
07:13PM 10.0670 0.1600 10° North  Level Estimated
07:14PM 10.1927 0.1693 10° North  Level Estimated
07:15PM 10.3184 0.1786 10° North  Level Estimated
07:16PM 10.4441 0.1880 10° North  Level Estimated
07:17PM 10.5698 0.1973 10° North  Level Estimated
07:18PM 10.6955 0.2067 10° North  Level Estimated
07:19PM 10.8212 0.2160 10° North  Level Estimated
07:20PM 10.9469 0.2254 10° North  Level Estimated
07:21PM 11.0726 0.2347 10° North  Level Estimated
07:22PM 11.1983 0.2441 10° North  Level Estimated
07:23PM 11.3240 0.2535 10° North  Level Estimated
07:24PM 11.4497 0.2629 10° North  Level Estimated
07:25PM 11.5754 0.2723 10° North  Level Estimated
07:26PM 11.7011 0.2817 10° North  Level Estimated
07:27PM 11.8268 0.2912 10° North  Level Estimated
07:28PM 11.9525 0.3006 10° North  Level Estimated
07:29PM 12.0782 0.3100 10° North  Level Estimated
07:30PM 12.2039 0.3195 10° North  Level Estimated
07:31PM 12.3296 0.3289 10° North  Level Estimated
07:32PM 12.4553 0.3384 10° North  Level Estimated
07:33PM 12.5810 0.3479 10° North  Level Estimated
07:34PM 12.7067 0.3574 10° North  Level Estimated
07:35PM 12.8324 0.3669 10° North  Level Estimated
07:36PM 12.9581 0.3764 10° North  Level Estimated
07:37PM 13.0838 0.3859 10° North  Level Estimated
07:38PM 13.2095 0.3954 10° North  Level Estimated
07:39PM 13.3352 0.4049 10° North  Level Estimated
07:40PM 13.4515 0.4137 10° North  Level Estimated
07:41PM 13.5679 0.4226 10° North  Level Estimated
07:42PM 13.6842 0.4314 10° North  Level Estimated
07:43PM 13.8005 0.4403 10° North  Level Estimated
07:44PM 13.9168 0.4492 11° North  Level Estimated
07:45PM 14.0331 0.4580 11° North  Level Estimated
07:46PM 14.1494 0.4669 11° North  Level Estimated
07:47PM 14.2657 0.4758 11° North  Level Estimated
07:48PM 14.3820 0.4847 11° North  Level Estimated
07:49PM 14.4983 0.4936 11° North  Level Estimated
07:50PM 14.6146 0.5025 11° North  Level Estimated
07:51PM 14.7310 0.5115 11° North  Level Estimated
07:52PM 14.8473 0.5204 11° North  Level Estimated
07:53PM 14.9636 0.5294 11° North  Level Estimated
07:54PM 15.0799 0.5383 11° North  Level Estimated
07:55PM 15.1962 0.5473 11° North  Level Estimated
07:56PM 15.3125 0.5563 11° North  Level Estimated
07:57PM 15.4288 0.5653 11° North  Level Estimated
07:58PM 15.5451 0.5743 11° North  Level Estimated
07:59PM 15.6614 0.5833 11° North  Level Estimated
08:00PM 15.7778 0.5923 11° North  Level Estimated
08:01PM 15.8941 0.6013 11° North  Level Estimated
08:02PM 16.0104 0.6104 11° North  Level Estimated
08:03PM 16.1267 0.6194 11° North  Level Estimated
08:04PM 16.2430 0.6285 11° North  Level Estimated
08:05PM 16.3593 0.6375 11° North  Level Estimated
08:06PM 16.4756 0.6466 11° North  Level Estimated
08:07PM 16.5919 0.6557 11° North  Level Estimated
08:08PM 16.7082 0.6648 11° North  Level Estimated
08:09PM 16.8245 0.6739 11° North  Level Estimated
08:10PM 16.9408 0.6831 11° North  Level Estimated
08:11PM 17.0571 0.6922 11° North  Level Estimated
08:12PM 17.1734 0.7013 11° North  Level Estimated
08:13PM 17.2897 0.7105 11° North  Level Estimated
08:14PM 17.4060 0.7197 11° North  Level Estimated
08:15PM 17.5223 0.7289 11° North  Level Estimated
08:16PM 17.6386 0.7381 11° North  Level Estimated
08:17PM 17.7549 0.7473 12° North  Level Estimated
08:18PM 17.8712 0.7565 12° North  Level Estimated
08:19PM 17.9875 0.7657 12° North  Level Estimated
08:20PM 18.1038 0.7750 12° North  Level Estimated
08:21PM 18.2201 0.7842 12° North  Level Estimated
08:22PM 18.3364 0.7935 12° North  Level Estimated
08:23PM 18.4527 0.8028 12° North  Level Estimated
08:24PM 18.5690 0.8121 12° North  Level Estimated
08:25PM 18.6853 0.8214 12° North  Level Estimated
08:26PM 18.8016 0.8307 12° North  Level Estimated
08:27PM 18.9179 0.8400 12° North  Level Estimated
08:28PM 19.0342 0.8494 12° North  Level Estimated
08:29PM 19.1505 0.8587 12° North  Level Estimated
08:30PM 19.2668 0.8681 12° North  Level Estimated
08:31PM 19.3831 0.8775 12° North  Level Estimated
08:32PM 19.4994 0.8869 12° North  Level Estimated
08:33PM 19.6157 0.8963 12° North  Level Estimated
08:34PM 19.7320 0.9057 12° North  Level Estimated
08:35PM 19.8483 0.9151 12° North  Level Estimated
08:36PM 19.9646 0.9246 12° North  Level Estimated
08:37PM 20.0809 0.9341 12° North  Level Estimated
08:38PM 20.1972 0.9435 12° North  Level Estimated
08:39PM 20.3135 0.9530 12° North  Level Estimated
08:40PM 20.4298 0.9625 12° North  Level Estimated
08:41PM 20.5460 0.9721 12° North  Level Estimated
08:42PM 20.6623 0.9816 13° North  Level Estimated
08:43PM 20.7786 0.9912 13° North  Level Estimated
08:44PM 20.8949 1.0007 13° North  Level Estimated
08:45PM 21.0112 1.0103 13° North  Level Estimated
08:46PM 21.1275 1.0199 13° North  Level Estimated
08:47PM 21.2438 1.0295 13° North  Level Estimated
08:48PM 21.3601 1.0391 13° North  Level Estimated
08:49PM 21.4764 1.0488 13° North  Level Estimated
08:50PM 21.5927 1.0584 13° North  Level Estimated
08:51PM 21.7090 1.0681 13° North  Level Estimated
08:52PM 21.8252 1.0778 13° North  Level Estimated
08:53PM 21.9415 1.0875 13° North  Level Estimated
08:54PM 22.0578 1.0972 13° North  Level Estimated
08:55PM 22.1741 1.1070 13° North  Level Estimated
08:56PM 22.2903 1.1167 13° North  Level Estimated
08:57PM 22.4066 1.1265 13° North  Level Estimated
08:58PM 22.5229 1.1363 13° North  Level Estimated
08:59PM 22.6392 1.1461 13° North  Level Estimated
09:00PM 22.7555 1.1559 13° North  Level Estimated
09:01PM 22.8717 1.1657 13° North  Level Estimated
09:02PM 22.9880 1.1756 14° North  Level Estimated
09:03PM 23.1043 1.1855 14° North  Level Estimated
09:04PM 23.2206 1.1954 14° North  Level Estimated
09:05PM 23.3369 1.2053 14° North  Level Estimated
09:06PM 23.4531 1.2152 14° North  Level Estimated
09:07PM 23.5694 1.2251 14° North  Level Estimated
09:08PM 23.6857 1.2351 14° North  Level Estimated
09:09PM 23.8020 1.2450 14° North  Level Estimated
09:10PM 23.9182 1.2550 14° North  Level Estimated
09:11PM 24.0345 1.2650 14° North  Level Estimated
09:12PM 24.1508 1.2751 14° North  Level Estimated
09:13PM 24.2670 1.2851 14° North  Level Estimated
09:14PM 24.3833 1.2952 14° North  Level Estimated
09:15PM 24.4996 1.3053 14° North  Level Estimated
09:16PM 24.6159 1.3154 14° North  Level Estimated
09:17PM 24.7321 1.3255 14° North  Level Estimated
09:18PM 24.8484 1.3356 15° North  Level Estimated
09:19PM 24.9647 1.3458 15° North  Level Estimated
09:20PM 25.0809 1.3560 15° North  Level Estimated
09:21PM 25.1972 1.3662 15° North  Level Estimated
09:22PM 25.3135 1.3764 15° North  Level Estimated
09:23PM 25.4298 1.3866 15° North  Level Estimated
09:24PM 25.5460 1.3969 15° North  Level Estimated
09:25PM 25.6623 1.4072 15° North  Level Estimated
09:26PM 25.7785 1.4175 15° North  Level Estimated
09:27PM 25.8948 1.4278 15° North  Level Estimated
09:28PM 26.0110 1.4381 15° North  Level Estimated
09:29PM 26.1273 1.4485 15° North  Level Estimated
09:30PM 26.2436 1.4589 15° North  Level Estimated
09:31PM 26.3598 1.4693 16° North  Level Estimated
09:32PM 26.4761 1.4797 16° North  Level Estimated
09:33PM 26.5924 1.4901 16° North  Level Estimated
09:34PM 26.7086 1.5006 16° North  Level Estimated
09:35PM 26.8249 1.5111 16° North  Level Estimated
09:36PM 26.9411 1.5216 16° North  Level Estimated
09:37PM 27.0574 1.5321 16° North  Level Estimated
09:38PM 27.1736 1.5426 16° North  Level Estimated
09:39PM 27.2899 1.5532 16° North  Level Estimated
09:40PM 27.4061 1.5638 16° North  Level Estimated
09:41PM 27.5224 1.5744 16° North  Level Estimated
09:42PM 27.6386 1.5850 17° North  Level Estimated
09:43PM 27.7549 1.5957 17° North  Level Estimated
09:44PM 27.8711 1.6064 17° North  Level Estimated
09:45PM 27.9874 1.6171 17° North  Level Estimated
09:46PM 28.1036 1.6278 17° North  Level Estimated
09:47PM 28.2199 1.6386 17° North  Level Estimated
09:48PM 28.3361 1.6494 17° North  Level Estimated
09:49PM 28.4524 1.6602 17° North  Level Estimated
09:50PM 28.5686 1.6710 17° North  Level Estimated
09:51PM 28.6849 1.6818 17° North  Level Estimated
09:52PM 28.8011 1.6927 18° North  Level Estimated
09:53PM 28.9173 1.7036 18° North  Level Estimated
09:54PM 29.0336 1.7145 18° North  Level Estimated
09:55PM 29.1498 1.7254 18° North  Level Estimated
09:56PM 29.2661 1.7364 18° North  Level Estimated
09:57PM 29.3823 1.7474 18° North  Level Estimated
09:58PM 29.4985 1.7584 18° North  Level Estimated
09:59PM 29.6148 1.7695 18° North  Level Estimated
10:00PM 29.7310 1.7805 19° North  Level Estimated
10:01PM 29.8472 1.7916 19° North  Level Estimated
10:02PM 29.9635 1.8027 19° North  Level Estimated
10:03PM 30.0797 1.8139 19° North  Level Estimated
10:04PM 30.1959 1.8251 19° North  Level Estimated
10:05PM 30.3122 1.8363 19° North  Level Estimated
10:06PM 30.4284 1.8475 19° North  Level Estimated
10:07PM 30.5446 1.8587 20° North  Level Estimated
10:08PM 30.6609 1.8700 20° North  Level Estimated
10:09PM 30.7771 1.8813 20° North  Level Estimated
10:10PM 30.8933 1.8927 20° North  Level Estimated
10:11PM 31.0095 1.9040 20° North  Level Estimated
10:12PM 31.1258 1.9154 20° North  Level Estimated
10:13PM 31.2420 1.9268 21° North  Level Estimated
10:14PM 31.3582 1.9383 21° North  Level Estimated
10:15PM 31.4744 1.9498 21° North  Level Estimated
10:16PM 31.5906 1.9613 21° North  Level Estimated
10:17PM 31.7069 1.9728 21° North  Level Estimated
10:18PM 31.8231 1.9843 21° North  Level Estimated
10:19PM 31.9393 1.9959 22° Northeast  Level Estimated
10:20PM 32.0555 2.0076 22° Northeast  Level Estimated
10:21PM 32.1717 2.0192 22° Northeast  Level Estimated
10:22PM 32.2879 2.0309 22° Northeast  Level Estimated
10:23PM 32.4041 2.0426 22° Northeast  Level Estimated
10:24PM 32.5204 2.0543 23° Northeast  Level Estimated
10:25PM 32.6366 2.0661 23° Northeast  Level Estimated
10:26PM 32.7528 2.0779 23° Northeast  Level Estimated
10:27PM 32.8690 2.0897 23° Northeast  Level Estimated
10:28PM 32.9852 2.1016 24° Northeast  Level Estimated
10:29PM 33.1014 2.1135 24° Northeast  Level Estimated
10:30PM 33.2176 2.1254 24° Northeast  Level Estimated
10:31PM 33.3338 2.1374 24° Northeast  Level Estimated
10:32PM 33.4500 2.1494 25° Northeast  Level Estimated
10:33PM 33.5662 2.1614 25° Northeast  Level Estimated
10:34PM 33.6824 2.1734 25° Northeast  Level Estimated
10:35PM 33.7986 2.1855 25° Northeast  Level Estimated
10:36PM 33.9148 2.1976 26° Northeast  Level Estimated
10:37PM 34.0310 2.2098 26° Northeast  Level Estimated
10:38PM 34.1472 2.2220 26° Northeast  Level Estimated
10:39PM 34.2634 2.2342 27° Northeast  Level Estimated
10:40PM 34.3796 2.2464 27° Northeast  Level Estimated
10:41PM 34.4958 2.2587 27° Northeast  Level Estimated
10:42PM 34.6120 2.2710 28° Northeast  Level Estimated
10:43PM 34.7282 2.2834 28° Northeast  Level Estimated
10:44PM 34.8443 2.2958 28° Northeast  Level Estimated
10:45PM 34.9605 2.3082 29° Northeast  Level Estimated
10:46PM 35.0767 2.3207 29° Northeast  Level Estimated
10:47PM 35.1929 2.3332 29° Northeast  Level Estimated
10:48PM 35.3091 2.3457 30° Northeast  Level Estimated
10:49PM 35.4253 2.3583 30° Northeast  Level Estimated
10:50PM 35.5415 2.3709 31° Northeast  Level Estimated
10:51PM 35.6576 2.3835 31° Northeast  Level Estimated
10:52PM 35.7738 2.3962 31° Northeast  Level Estimated
10:53PM 35.8900 2.4089 32° Northeast  Level Estimated
10:54PM 36.0062 2.4216 32° Northeast  Level Estimated
10:55PM 36.1223 2.4344 33° Northeast  Level Estimated
10:56PM 36.2385 2.4473 33° Northeast  Level Estimated
10:57PM 36.3547 2.4601 34° Northeast  Level Estimated
10:58PM 36.4709 2.4730 34° Northeast  Level Estimated
10:59PM 36.5870 2.4860 35° Northeast  Level Estimated
11:00PM 36.7032 2.4989 36° Northeast  Level Estimated
11:01PM 36.8194 2.5120 36° Northeast  Level Estimated
11:02PM 36.9355 2.5250 37° Northeast  Level Estimated
11:03PM 37.0517 2.5381 37° Northeast  Level Estimated
11:04PM 37.1678 2.5513 38° Northeast  Level Estimated
11:05PM 37.2840 2.5644 39° Northeast  Level Estimated
11:06PM 37.4002 2.5777 40° Northeast  Level Estimated
11:07PM 37.5163 2.5909 40° Northeast  Level Estimated
11:08PM 37.6325 2.6042 41° Northeast  Level Estimated
11:09PM 37.7486 2.6176 42° Northeast  Level Estimated
11:10PM 37.8648 2.6310 43° Northeast  Level Estimated
11:11PM 37.9809 2.6444 44° Northeast  Level Estimated
11:12PM 38.0971 2.6579 44° Northeast  Level Estimated
11:13PM 38.2132 2.6714 45° Northeast  Level Estimated
11:14PM 38.3294 2.6849 46° Northeast  Level Estimated
11:15PM 38.4455 2.6985 47° Northeast  Level Estimated
11:16PM 38.5616 2.7122 48° Northeast  Level Estimated
11:17PM 38.6778 2.7259 49° Northeast  Level Estimated
11:18PM 38.7939 2.7396 51° Northeast  Level Estimated
11:19PM 38.9101 2.7534 52° Northeast  Level Estimated
11:20PM 39.0262 2.7672 53° Northeast  Level Estimated
11:21PM 39.1423 2.7811 54° Northeast  Level Estimated
11:22PM 39.2585 2.7950 56° Northeast  Level Estimated
11:23PM 39.3746 2.8090 57° Northeast  Level Estimated
11:24PM 39.4907 2.8230 58° Northeast  Level Estimated
11:25PM 39.6068 2.8370 60° Northeast  Level Estimated
11:26PM 39.7230 2.8511 61° Northeast  Level Estimated
11:27PM 39.8391 2.8653 63° Northeast  Level Estimated
11:28PM 39.9552 2.8795 65° Northeast  Level Estimated
11:29PM 40.0713 2.8937 66° East  Level Estimated
11:30PM 40.1875 2.9080 68° East  Level Estimated
11:31PM 40.3036 2.9223 70° East  Level Estimated
11:32PM 40.4197 2.9367 72° East  Level Estimated
11:33PM 40.5358 2.9512 74° East  Level Estimated
11:34PM 41.3455 6.9980 358° North 442 509 38,000  Level FlightAware ADS-B
11:35PM 41.4095 6.9957 358° North 445 512 38,000  Level FlightAware ADS-B
11:35PM 41.4738 6.9933 358° North 446 513 38,000  Level FlightAware ADS-B
11:36PM 41.5390 6.9910 358° North 447 514 38,000  Level FlightAware ADS-B
11:36PM 41.6053 6.9878 357° North 443 510 38,000  Level FlightAware ADS-B
11:37PM 41.6683 6.9838 357° North 442 509 38,000  Level FlightAware ADS-B
11:38PM 41.7307 6.9800 357° North 442 509 38,000  Level FlightAware ADS-B
11:38PM 41.7942 6.9763 357° North 444 511 38,000  Level FlightAware ADS-B
11:39PM 41.8579 6.9725 357° North 445 512 38,000  Level FlightAware ADS-B
11:39PM 41.9214 6.9687 358° North 446 513 38,000  Level FlightAware ADS-B
11:40PM 41.9839 6.9651 357° North 445 512 38,000  Level FlightAware ADS-B
11:40PM 42.0451 6.9615 358° North 445 512 38,000  Level FlightAware ADS-B
11:41PM 42.1081 6.9578 357° North 445 512 38,000  Level FlightAware ADS-B
11:41PM 42.1704 6.9541 357° North 447 514 38,000  Level FlightAware ADS-B
11:42PM 42.2349 6.9502 358° North 448 516 38,000  Level FlightAware ADS-B
11:42PM 42.2964 6.9466 357° North 451 519 38,000  Level FlightAware ADS-B
11:43PM 42.3598 6.9427 357° North 451 519 38,000  Level FlightAware ADS-B
11:43PM 42.4251 6.9388 358° North 453 521 38,000  Level FlightAware ADS-B
11:44PM 42.5060 6.9340 357° North 450 518 38,000  Level FlightAware ADS-B
11:44PM 42.5700 6.9301 357° North 450 518 38,000  Level FlightAware ADS-B
11:45PM 42.6336 6.9262 357° North 450 518 38,000  Level FlightAware ADS-B
11:45PM 42.6986 6.9223 357° North 451 519 38,000  Level FlightAware ADS-B
11:46PM 42.7624 6.9185 357° North 451 519 38,000  Level FlightAware ADS-B
11:46PM 42.8258 6.9147 357° North 451 519 38,000  Level FlightAware ADS-B
11:47PM 42.8989 6.9103 357° North 451 519 38,000  Level FlightAware ADS-B
11:47PM 42.9635 6.9064 357° North 452 520 38,000  Level FlightAware ADS-B
11:48PM 43.0283 6.9024 357° North 452 520 38,000  Level FlightAware ADS-B
11:48PM 43.0921 6.8985 357° North 450 518 38,000  Level FlightAware ADS-B
11:49PM 43.1528 6.8948 357° North 450 518 38,000  Level FlightAware ADS-B
11:49PM 43.2160 6.8909 357° North 450 518 38,000  Level FlightAware ADS-B
11:50PM 43.2796 6.8869 357° North 450 518 38,000  Level FlightAware ADS-B
11:50PM 43.3409 6.8831 357° North 452 520 38,000  Level FlightAware ADS-B
11:51PM 43.4045 6.8791 357° North 453 521 38,000  Level FlightAware ADS-B
11:51PM 43.4703 6.8751 357° North 453 521 38,000  Level FlightAware ADS-B
11:52PM 43.5339 6.8712 357° North 452 520 38,000  Level FlightAware ADS-B
11:53PM 43.5975 6.8673 357° North 447 514 38,000  Level FlightAware ADS-B
11:53PM 43.6608 6.8632 357° North 442 509 38,000  Level FlightAware ADS-B
11:54PM 43.7239 6.8592 357° North 444 511 38,000  Level FlightAware ADS-B
11:54PM 43.7878 6.8553 357° North 443 510 38,000  Level FlightAware ADS-B
11:55PM 43.8492 6.8514 357° North 444 511 38,000  Level FlightAware ADS-B
11:55PM 43.9119 6.8474 357° North 444 511 38,000  Level FlightAware ADS-B
11:56PM 43.9780 6.8434 357° North 443 510 38,000  Level FlightAware ADS-B
11:56PM 44.0495 6.8388 357° North 443 510 38,000  Level FlightAware ADS-B
11:57PM 44.1156 6.8345 358° North 445 512 38,000  Level FlightAware ADS-B
11:57PM 44.1791 6.8308 357° North 447 514 38,000  Level FlightAware ADS-B
11:58PM 44.2412 6.8268 357° North 449 517 38,000  Level FlightAware ADS-B
11:58PM 44.3060 6.8226 357° North 451 519 38,000  Level FlightAware ADS-B
11:59PM 44.3703 6.8184 357° North 452 520 38,000  Level FlightAware ADS-B
11:59PM 44.4413 6.8138 357° North 452 520 38,000  Level FlightAware ADS-B
12:00AM 44.5122 6.8093 357° North 449 517 38,000  Level FlightAware ADS-B
12:00AM 44.5773 6.8052 357° North 449 517 38,000  Level FlightAware ADS-B
12:01AM 44.6451 6.8003 355° North 451 519 38,000  Level FlightAware ADS-B
12:01AM 44.7107 6.7922 355° North 448 516 38,000  Level FlightAware ADS-B
12:02AM 44.7815 6.7832 355° North 447 514 38,000  Level FlightAware ADS-B
12:03AM 44.8471 6.7754 351° North 449 517 38,000  Level FlightAware ADS-B
12:10AM 45.7043 6.5729 350° North  Level Estimated
12:11AM 45.8193 6.5452 350° North  Level Estimated
12:12AM 45.9343 6.5175 350° North  Level Estimated
12:13AM 46.0493 6.4896 350° North  Level Estimated
12:14AM 46.1643 6.4616 350° North  Level Estimated
12:15AM 46.2793 6.4335 350° North  Level Estimated
12:16AM 46.3943 6.4053 350° North  Level Estimated
12:17AM 46.5093 6.3769 350° North  Level Estimated
12:18AM 46.6243 6.3485 350° North  Level Estimated
12:19AM 46.7393 6.3199 350° North  Level Estimated
12:20AM 46.8542 6.2912 350° North  Level Estimated
12:21AM 46.9692 6.2623 350° North  Level Estimated
12:22AM 47.0841 6.2334 350° North  Level Estimated
12:23AM 47.1991 6.2043 350° North  Level Estimated
12:24AM 47.3140 6.1751 350° North  Level Estimated
12:25AM 47.4289 6.1457 350° North  Level Estimated
12:26AM 47.5438 6.1163 350° North  Level Estimated
12:27AM 47.6587 6.0867 350° North  Level Estimated
12:28AM 47.7737 6.0570 350° North  Level Estimated
12:29AM 47.8885 6.0271 350° North  Level Estimated
12:30AM 48.0034 5.9971 350° North  Level Estimated
12:31AM 48.1183 5.9670 350° North  Level Estimated
12:32AM 48.2332 5.9367 350° North  Level Estimated
12:33AM 48.3480 5.9063 350° North  Level Estimated
12:34AM 48.4629 5.8758 350° North  Level Estimated
12:35AM 48.5778 5.8451 350° North  Level Estimated
12:36AM 48.6926 5.8143 350° North  Level Estimated
12:37AM 48.8074 5.7834 350° North  Level Estimated
12:38AM 48.9223 5.7523 350° North  Level Estimated
12:39AM 49.0371 5.7210 350° North  Level Estimated
12:40AM 49.1545 5.6890 350° North  Level Estimated
12:41AM 49.2719 5.6567 350° North  Level Estimated
12:42AM 49.3894 5.6243 350° North  Level Estimated
12:43AM 49.5068 5.5917 350° North  Level Estimated
12:44AM 49.6242 5.5590 350° North  Level Estimated
12:45AM 49.7416 5.5261 350° North  Level Estimated
12:46AM 49.8590 5.4931 350° North  Level Estimated
12:47AM 49.9763 5.4599 350° North  Level Estimated
12:48AM 50.0937 5.4265 350° North  Level Estimated
12:49AM 50.2110 5.3930 350° North  Level Estimated
12:50AM 50.3284 5.3593 350° North  Level Estimated
12:51AM 50.4457 5.3255 350° North  Level Estimated
12:52AM 50.5630 5.2914 350° North  Level Estimated
12:53AM 50.6803 5.2572 350° North  Level Estimated
12:54AM 50.7976 5.2229 349° North  Level Estimated
12:55AM 50.9149 5.1883 349° North  Level Estimated
12:56AM 51.0322 5.1536 349° North  Level Estimated
12:57AM 51.1495 5.1187 349° North  Level Estimated
12:58AM 51.2668 5.0837 349° North  Level Estimated
12:59AM 51.3840 5.0484 349° North  Level Estimated
01:00AM 51.5012 5.0130 349° North  Level Estimated
01:01AM 51.6185 4.9774 349° North  Level Estimated
01:02AM 51.7357 4.9416 349° North  Level Estimated
01:03AM 51.8529 4.9056 349° North  Level Estimated
01:04AM 51.9701 4.8694 349° North  Level Estimated
01:05AM 52.0873 4.8331 349° North  Level Estimated
01:06AM 52.2045 4.7965 349° North  Level Estimated
01:07AM 52.3216 4.7598 169° South  Level Estimated
01:08AM 52.2045 4.7965 349° North  Level Estimated
01:09AM 52.3196 4.7604 169° South  Level Estimated
01:10AM 52.2045 4.7965 349° North  Level Estimated
01:11AM 52.3196 4.7604 169° South  Level Estimated
01:12AM 52.2045 4.7965 349° North  Level Estimated
01:13AM 52.3196 4.7604 169° South  Level Estimated
01:14AM 52.2045 4.7965 349° North  Level Estimated
01:15AM 52.3196 4.7604 169° South  Level Estimated
01:16AM 52.2045 4.7965 349° North  Level Estimated
01:17AM 52.3196 4.7604 169° South  Level Estimated
01:18AM 52.2045 4.7965 349° North  Level Estimated
01:19AM 52.3196 4.7604 169° South  Level Estimated
01:20AM 52.2045 4.7965 349° North  Level Estimated
01:21AM 52.3196 4.7604 169° South  Level Estimated
01:22AM 52.2045 4.7965 349° North  Level Estimated
01:23AM 52.3196 4.7604 169° South  Level Estimated
01:24AM 52.2045 4.7965 349° North  Level Estimated
01:25AM 52.3196 4.7604 169° South  Level Estimated
01:26AM 52.2045 4.7965 349° North  Level Estimated
01:27AM 52.3196 4.7604 169° South  Level Estimated
01:28AM 52.2045 4.7965 349° North  Level Estimated
01:29AM 52.3196 4.7604 169° South  Level Estimated
01:30AM 52.2045 4.7965 349° North  Level Estimated
01:31AM 52.3196 4.7604 169° South  Level Estimated
01:32AM 52.2045 4.7965 349° North  Level Estimated
01:33AM 52.3196 4.7604 349° North  Level Estimated